< < Back
Terminal Aerodrome Forecast


Current Version              Previous Versions:   1  2  3  4  5  6  7  8  9  

Terminal Aerodrome Forecast

901
FTUS42 KMLB 062321
TAFDAB
TAF
KDAB 062321Z 0700/0724 18006KT P6SM VCSH SCT060 BKN150 OVC250
     FM070200 VRB03KT P6SM SCT030 BKN250
     FM070600 00000KT P6SM FEW030 SCT250
     FM071400 22005KT P6SM FEW025 SCT250
     FM071800 11008KT P6SM SCT040=

Latest METAR

550
SAUS80 KWBC 070000 CCA
MTRDAB
METAR KDAB 062353Z 19005KT 7SM -RA FEW080 SCT110 BKN150 BKN250 23/21
A3016 RMK AO2 RAE2259B18 SLP210 P0001 60013 T02280211 10306
20222 51002


USA.gov is the U.S. government's official web portal to all federal, state and local government web resources and services.